Previous Day
Next Day
Current Day
SHEF ID: NRCO2 Canadian River at Norman, OK
STATION TYPE:
STAGE RIV-FLOW BAT-LOAD
ft cfs volt
Ccp-Rev Ccp-Rev Ccp-Rev
(US/Central)
04/14 00:00 87.03 219 12.57
04/14 01:00 87.02 215 12.49
04/14 02:00 87.04 223 12.41
04/14 03:00 87.04 223 12.41
04/14 04:00 87.04 223 12.41
04/14 05:00 87.04 223 12.33
04/14 06:00 87.04 223 12.33
04/14 07:00 87.04 223 12.25
04/14 08:00 87.04 223 12.25
04/14 09:00 87.04 223 12.25
04/14 10:00 86.97 195 12.33
04/14 11:00 87.04 223 12.41
04/14 12:00 87.02 215 13.84
04/14 13:00 87.00 207 13.84
04/14 14:00 87.00 207 13.84
04/14 15:00 86.99 203 13.44
04/14 16:00 86.96 192 13.37
04/14 17:00 86.95 188 13.29
04/14 18:00 87.00 207 13.21
04/14 19:00 86.98 199 13.21
04/14 20:00 87.04 223 12.81
04/14 21:00 87.04 223 12.65
04/14 22:00 87.03 219 12.57
04/14 23:00 87.04 223 12.57